Observations for PERUGIA, Italy (LIRZ)

LIRZ 180650Z 01003KT 310V060 CAVOK 23/16 Q1015  
LIRZ 180550Z 02004KT CAVOK 20/15 Q1015  
LIRZ 180450Z AUTO VRB02KT 9999 NCD 18/15 Q1015  
LIRZ 180350Z AUTO 01004KT 9999 NCD 17/14 Q1015  
LIRZ 180250Z AUTO 02005KT 9999 NCD 17/14 Q1014  
LIRZ 180150Z AUTO 34006KT 300V360 9999 NCD 18/14 Q1014  
LIRZ 180050Z AUTO 35009KT 9999 NCD 19/14 Q1015  
LIRZ 172350Z AUTO 36008KT 9999 NCD 18/15 Q1015  
LIRZ 172250Z AUTO 35009KT 9999 NCD 19/15 Q1015  
LIRZ 172150Z AUTO 36010KT 9999 NCD 20/15 Q1015  
LIRZ 172050Z 35008KT CAVOK 21/15 Q1015  
LIRZ 171950Z 32005KT 300V360 CAVOK 23/15 Q1014  
LIRZ 171850Z 02007KT CAVOK 24/17 Q1014  
LIRZ 171750Z 01011KT CAVOK 25/17 Q1013  
LIRZ 171650Z 36010KT 330V030 9999 FEW050 26/18 Q1013
LIRZ 171550Z 02011KT 9999 SCT050 24/18 Q1013 RETS   
LIRZ 171515Z 05015KT 9999 FEW030CB SCT050 23/18 Q1013 RETS
LIRZ 171450Z 02019KT 9999 -TSRA FEW030CB SCT050 25/16 Q1013 
LIRZ 171350Z 35005KT 300V050 9999 SCT050 32/14 Q1012
LIRZ 171250Z 33005KT 300V050 9999 SCT050 31/13 Q1013
LIRZ 171150Z 34006KT 300V040 9999 FEW050 30/14 Q1013
LIRZ 171050Z 35006KT 300V050 9999 FEW050 30/14 Q1014
LIRZ 170950Z VRB03KT 9999 FEW050 29/16 Q1014
LIRZ 170850Z VRB02KT CAVOK 26/16 Q1015  
LIRZ 170750Z VRB02KT CAVOK 24/16 Q1015  
LIRZ 170650Z VRB02KT CAVOK 21/15 Q1015